• Join FlightAware (Why Join?)
  • Login
  • US Flag 
06:58AM EDT


 

Airport Tracker/Info


-or-


 

Live Flight TrackerFlight Track Log ✈ WBR2623 ✈ 26-Jul-2013 ✈ KORD - KBRL

Flight Track Log - Related Links

Times and Time Zones

All times are in EDT time to prevent confusion due to time zone crossing. See the WBR2623 flight status page for this flight to view local times or setup timezone preferences in your user account.

Time Position Orientation Groundspeed Altitude Reporting Facility
EDT Latitude Longitude Course Direction KTS MPH feet Rate Location/Type
09:36AM 41.9667 -87.9500 270° West 81 93 2,400  Level Chicago TRACON
09:37AM 41.9500 -87.9667 217° Southwest 77 89 3,200 780 Climbing Chicago TRACON
09:38AM 41.9333 -88.0000 236° Southwest 94 108 3,900 660 Climbing Chicago TRACON
09:39AM 41.9167 -88.0167 217° Southwest 113 130 4,500 540 Climbing Chicago TRACON
09:40AM 41.8833 -88.0500 217° Southwest 124 143 5,000 180 Climbing Chicago TRACON
09:41AM 41.9667 -88.2146 270° West  Level FlightAware Approximate
09:41AM 41.8500 -88.0833 217° Southwest 145 167 5,000  Level Chicago TRACON
09:42AM 41.8167 -88.1167 217° Southwest 143 165 5,100  Climbing Chicago TRACON
09:43AM 41.7833 -88.1500 217° Southwest 145 167 5,100 -60 Level Chicago TRACON
09:44AM 41.7500 -88.1667 200° South 143 165 5,000  Descending Chicago TRACON
09:45AM 41.7167 -88.2000 217° Southwest 138 159 5,100 60 Climbing Chicago TRACON
09:46AM 41.6967 -88.2575 245° Southwest 150 173 5,200  Climbing Chicago Center
09:47AM 41.6872 -88.3081 256° West 142 163 5,100 -60 Descending Chicago Center
09:48AM 41.6783 -88.3594 257° West 143 165 5,100  Level Chicago Center
09:49AM 41.6681 -88.4106 255° West 143 165 5,100  Level Chicago Center
09:50AM 41.6506 -88.4689 248° West 142 163 5,100  Level Chicago Center
09:51AM 41.6356 -88.5158 247° West 140 161 5,100  Level Chicago Center
09:52AM 41.6203 -88.5628 246° West 139 160 5,100 -60 Level Chicago Center
09:53AM 41.6058 -88.6078 247° West 135 155 5,000  Descending Chicago Center
09:54AM 41.5914 -88.6528 247° West 134 154 5,100  Climbing Chicago Center
09:55AM 41.5739 -88.7039 245° Southwest 128 147 5,000  Descending Chicago Center
09:56AM 41.5589 -88.7469 245° Southwest 129 148 5,100  Climbing Chicago Center
09:57AM 41.5425 -88.7872 241° Southwest 126 145 5,100 120 Level Chicago Center
09:58AM 41.5269 -88.8297 244° Southwest 127 146 5,400 300 Climbing Chicago Center
09:59AM 41.5136 -88.8719 247° West 125 144 5,800 480 Climbing Chicago Center
10:00AM 41.5014 -88.9247 253° West 125 144 6,400 480 Climbing Chicago Center
10:02AM 41.4889 -88.9681 249° West 125 144 6,800 420 Climbing Chicago Center
10:03AM 41.4783 -89.0122 252° West 125 144 7,300 420 Climbing Chicago Center
10:04AM 41.4689 -89.0589 255° West 130 150 7,700 300 Climbing Chicago Center
10:05AM 41.4514 -89.1011 241° Southwest 131 151 8,000 180 Climbing Chicago Center
10:06AM 41.4294 -89.1583 243° Southwest 142 163 8,100  Climbing Chicago Center
10:07AM 41.4222 -89.2078 259° West 141 162 8,100 -60 Level Chicago Center
10:08AM 41.4064 -89.2547 246° West 139 160 8,000 -60 Descending Chicago Center
10:09AM 41.3878 -89.2978 240° Southwest 138 159 8,000  Level Chicago Center
10:10AM 41.3725 -89.3458 247° West 138 159 8,100  Climbing Chicago Center
10:11AM 41.3608 -89.3969 253° West 140 161 8,100  Level Chicago Center
10:12AM 41.3481 -89.4553 254° West 139 160 8,100  Level Chicago Center
10:13AM 41.3342 -89.4989 247° West 133 153 8,100  Level Chicago Center
10:14AM 41.3158 -89.5419 240° Southwest 133 153 8,100  Level Chicago Center
10:15AM 41.2928 -89.5831 233° Southwest 136 157 8,100  Level Chicago Center
10:16AM 41.2758 -89.6297 244° Southwest 139 160 8,100  Level Chicago Center
10:17AM 41.2614 -89.6775 248° West 139 160 8,100  Level Chicago Center
10:18AM 41.2428 -89.7311 245° Southwest 135 155 8,100  Level Chicago Center
10:19AM 41.2275 -89.7778 246° West 136 157 8,100  Level Chicago Center
10:20AM 41.2122 -89.8239 246° West 136 157 8,100  Level Chicago Center
10:21AM 41.1958 -89.8700 245° Southwest 137 158 8,100  Level Chicago Center
10:22AM 41.1842 -89.9175 252° West 136 157 8,100  Level Chicago Center
10:23AM 41.1675 -89.9611 243° Southwest 133 153 8,100  Level Chicago Center
10:24AM 41.1500 -90.0161 247° West 135 155 8,100  Level Chicago Center
10:25AM 41.1361 -90.0636 249° West 138 159 8,100 -60 Level Chicago Center
10:26AM 41.1225 -90.1139 250° West 143 165 8,000  Descending Chicago Center
10:27AM 41.1119 -90.1625 254° West 140 161 8,100  Climbing Chicago Center
10:28AM 41.0939 -90.2106 244° Southwest 143 165 8,100  Level Chicago Center
10:29AM 41.0764 -90.2578 244° Southwest 144 166 8,100 -420 Level Chicago Center
10:30AM 41.0536 -90.3186 244° Southwest 148 170 7,300 -720 Descending Chicago Center
10:32AM 41.0364 -90.3686 245° Southwest 150 173 6,700 -540 Descending Chicago Center
10:33AM 41.0253 -90.4161 253° West 145 167 6,200 -300 Descending Chicago Center
10:34AM 41.0122 -90.4653 251° West 142 163 6,100 -60 Descending Chicago Center
10:35AM 40.9997 -90.5075 249° West 135 155 6,100  Level Chicago Center
10:36AM 40.9842 -90.5522 245° Southwest 131 151 6,100  Level Chicago Center
10:37AM 40.9767 -90.6019 259° West 136 157 6,100  Level Chicago Center
10:38AM 40.9853 -90.6614 281° West 137 158 6,100  Level Chicago Center
10:39AM 40.9839 -90.7089 268° West 133 153 6,100  Level Chicago Center
10:40AM 40.9817 -90.7592 267° West 134 154 6,100 -300 Level Chicago Center
10:41AM 40.9800 -90.8094 268° West 135 155 5,500 -660 Descending Chicago Center
10:42AM 40.9808 -90.8578 271° West 133 153 4,800 -660 Descending Chicago Center
10:43AM 40.9744 -90.9058 260° West 132 152 4,200 -300 Descending Chicago Center
10:44AM 40.9667 -90.9614 260° West 129 148 4,200  Level Chicago Center
10:45AM 40.9606 -91.0086 260° West 130 150 4,200 -60 Level Chicago Center
10:46AM 40.9600 -91.0572 269° West 131 151 4,100 -60 Descending Chicago Center
10:47AM 40.9614 -91.1053 272° West 131 151 4,100  Level Chicago Center
10:48AM 40.9569 -91.1522 263° West 130 150 4,100  Level Chicago Center
10:49AM 40.9497 -91.1981 258° West 129 148 4,100 -300 Level Chicago Center
10:50AM 40.9003 -91.1700 157° South 160 184 3,600 -600 Descending Chicago Center
10:51AM 40.8617 -91.1428 152° Southeast 158 182 2,900 -780 Descending Chicago Center
10:52AM 40.8261 -91.1233 158° South 150 173 2,000 -900 Descending Chicago Center
10:54AM 40.7832 -91.1255 131° Southeast  Level Estimated